PWSweather.com
Personal Weather Stations
Station Observations
WATERF01
WaterfordIE

WaterfordIE

Lat: 52.2412507, Lon: -7.1414691

Elevation: 65

Station Type: Davis Vantage Vue

Latest ConditionsUpdated 6:20:00 AM GMT Thursday, Feb 11, 2016
Currently Today's Max Today's Min Today's Average
Temperature 34.1°F1.2°C 36.4°F2.4°C 31.4°F-0.3°C 33.3°F0.7°C
Dew Point 33.1°F0.6°C 34.0°F1.1°C 30.1°F-1.1°C 31.9°F-0.1°C
Winds Calm Calm 2.3 mph W3.7 kmh W - 0.1 mph 0.2 kmh
Wind Gusts -- 2.3 mph3.7 kmh - -
Humidity 96% 96% 91% 94%
Pressure 29.59 in1002.0 mb 29.64 in1003.7 mb 29.59 in1002.0 mb -
Precipitation - 0.01 in0.3 mm - -
Hour Temp Dew Point Humidity Winds Wind Gusts Pressure Precip Precip Rate Daily Precip Total
06:20 AM 34.1°F1.2°C 33.1°F0.6°C 96% Calm Calm -- 29.59 in1002.0 mb - 0.01 in0.3 mm 0.01 in0.3 mm
06:10 AM 33.7°F0.9°C 32.7°F0.4°C 96% Calm Calm -- 29.60 in1002.4 mb - 0.00 in0.0 mm 0.00 in0.0 mm
06:00 AM 33.2°F0.7°C 32.2°F0.1°C 96% Calm Calm -- 29.60 in1002.4 mb - 0.00 in0.0 mm 0.00 in0.0 mm
05:50 AM 32.2°F0.1°C 31.1°F-0.5°C 96% Calm Calm -- 29.60 in1002.4 mb - 0.00 in0.0 mm 0.00 in0.0 mm
05:40 AM 32.2°F0.1°C 31.2°F-0.4°C 96% Calm Calm -- 29.60 in1002.4 mb - 0.00 in0.0 mm 0.00 in0.0 mm
05:30 AM 31.9°F-0.1°C 30.9°F-0.6°C 96% Calm Calm -- 29.60 in1002.4 mb - 0.00 in0.0 mm 0.00 in0.0 mm
05:20 AM 32.0°F0.0°C 31.0°F-0.6°C 96% Calm Calm -- 29.60 in1002.4 mb - 0.00 in0.0 mm 0.00 in0.0 mm
05:10 AM 31.9°F-0.1°C 30.9°F-0.6°C 96% Calm Calm -- 29.60 in1002.4 mb - 0.00 in0.0 mm 0.00 in0.0 mm
05:00 AM 31.8°F-0.1°C 30.8°F-0.7°C 96% Calm Calm -- 29.61 in1002.7 mb - 0.00 in0.0 mm 0.00 in0.0 mm
04:50 AM 31.9°F-0.1°C 30.9°F-0.6°C 96% Calm Calm -- 29.61 in1002.7 mb - 0.00 in0.0 mm 0.00 in0.0 mm
04:40 AM 31.5°F-0.3°C 30.2°F-1.0°C 95% Calm Calm -- 29.61 in1002.7 mb - 0.00 in0.0 mm 0.00 in0.0 mm
04:30 AM 31.9°F-0.1°C 30.6°F-0.8°C 95% Calm Calm -- 29.61 in1002.7 mb - 0.00 in0.0 mm 0.00 in0.0 mm
04:20 AM 31.7°F-0.2°C 30.4°F-0.9°C 95% Calm Calm -- 29.61 in1002.7 mb - 0.00 in0.0 mm 0.00 in0.0 mm
04:10 AM 31.4°F-0.3°C 30.1°F-1.1°C 95% Calm Calm -- 29.61 in1002.7 mb - 0.00 in0.0 mm 0.00 in0.0 mm
04:00 AM 31.6°F-0.2°C 30.3°F-0.9°C 95% Calm Calm -- 29.61 in1002.7 mb - 0.00 in0.0 mm 0.00 in0.0 mm
03:50 AM 32.3°F0.2°C 31.0°F-0.6°C 95% Calm Calm -- 29.62 in1003.0 mb - 0.00 in0.0 mm 0.00 in0.0 mm
03:40 AM 32.1°F0.1°C 30.8°F-0.7°C 95% Calm Calm -- 29.62 in1003.0 mb - 0.00 in0.0 mm 0.00 in0.0 mm
03:30 AM 32.3°F0.2°C 31.0°F-0.6°C 95% Calm Calm -- 29.63 in1003.4 mb - 0.00 in0.0 mm 0.00 in0.0 mm
03:20 AM 32.6°F0.3°C 31.3°F-0.4°C 95% Calm Calm -- 29.63 in1003.4 mb - 0.00 in0.0 mm 0.00 in0.0 mm
03:10 AM 32.3°F0.2°C 31.0°F-0.6°C 95% Calm Calm -- 29.63 in1003.4 mb - 0.00 in0.0 mm 0.00 in0.0 mm
03:00 AM 32.4°F0.2°C 30.9°F-0.6°C 94% Calm Calm -- 29.63 in1003.4 mb - 0.00 in0.0 mm 0.00 in0.0 mm
02:50 AM 32.5°F0.3°C 31.0°F-0.6°C 94% Calm Calm -- 29.63 in1003.4 mb - 0.00 in0.0 mm 0.00 in0.0 mm
02:40 AM 33.2°F0.7°C 31.6°F-0.2°C 94% Calm Calm -- 29.63 in1003.4 mb - 0.00 in0.0 mm 0.00 in0.0 mm
02:30 AM 33.5°F0.8°C 32.0°F0.0°C 94% Calm Calm -- 29.64 in1003.7 mb - 0.00 in0.0 mm 0.00 in0.0 mm
02:20 AM 34.2°F1.2°C 32.6°F0.3°C 94% Calm Calm -- 29.64 in1003.7 mb - 0.00 in0.0 mm 0.00 in0.0 mm
02:10 AM 34.4°F1.3°C 32.9°F0.5°C 94% Calm Calm -- 29.64 in1003.7 mb - 0.00 in0.0 mm 0.00 in0.0 mm
02:00 AM 34.4°F1.3°C 32.9°F0.5°C 94% Calm Calm -- 29.64 in1003.7 mb - 0.00 in0.0 mm 0.00 in0.0 mm
01:50 AM 34.0°F1.1°C 32.5°F0.3°C 94% Calm Calm -- 29.63 in1003.4 mb - 0.00 in0.0 mm 0.00 in0.0 mm
01:40 AM 34.4°F1.3°C 32.9°F0.5°C 94% Calm Calm -- 29.63 in1003.4 mb - 0.00 in0.0 mm 0.00 in0.0 mm
01:30 AM 34.9°F1.6°C 33.3°F0.7°C 94% Calm Calm -- 29.63 in1003.4 mb - 0.00 in0.0 mm 0.00 in0.0 mm
01:20 AM 35.0°F1.7°C 33.4°F0.8°C 94% Calm Calm -- 29.64 in1003.7 mb - 0.00 in0.0 mm 0.00 in0.0 mm
01:10 AM 34.7°F1.5°C 32.9°F0.5°C 93% Calm Calm -- 29.64 in1003.7 mb - 0.00 in0.0 mm 0.00 in0.0 mm
01:00 AM 34.9°F1.6°C 33.1°F0.6°C 93% Calm Calm -- 29.64 in1003.7 mb - 0.00 in0.0 mm 0.00 in0.0 mm
12:50 AM 35.0°F1.7°C 33.2°F0.7°C 93% Calm Calm -- 29.64 in1003.7 mb - 0.00 in0.0 mm 0.00 in0.0 mm
12:40 AM 35.0°F1.7°C 32.9°F0.5°C 92% Calm Calm -- 29.64 in1003.7 mb - 0.00 in0.0 mm 0.00 in0.0 mm
12:30 AM 35.3°F1.8°C 33.2°F0.7°C 92% 2.3 mph W3.7 kmh W 2.3 mph3.7 kmh 29.64 in1003.7 mb - 0.00 in0.0 mm 0.00 in0.0 mm
12:20 AM 35.7°F2.1°C 33.6°F0.9°C 92% Calm Calm -- 29.63 in1003.4 mb - 0.00 in0.0 mm 0.00 in0.0 mm
12:10 AM 36.1°F2.3°C 33.7°F0.9°C 91% Calm Calm -- 29.63 in1003.4 mb - 0.00 in0.0 mm 0.00 in0.0 mm
12:00 AM 36.4°F2.4°C 34.0°F1.1°C 91% Calm Calm -- 29.63 in1003.4 mb - 0.00 in0.0 mm 0.00 in0.0 mm